x

Virginia Beach 64 Nm East Of Virginia Beach, Va (44014) Wave Buoy

8:50 - Fri 22nd Sep 2017 All times are EDT. -4 hours from GMT.

  • Sig Wave height 7.9ft
  • Swell Direction
  • Peak Period 11s
  • Average Period 9s
  • Wind
    11mph, 16mph gusts
  • Sea Temp 69°f
  • Aire Temp 71°f
  • Sea Pressure 1017.4mb
  • Virginia Beach 64 Nm East Of Virginia Beach, Va
  • Virginia Beach 64 Nm East Of Virginia Beach, Va

More Historic Weather Station data

Upgrade to MSW Pro to gain access to the past 30 days of data for over 8000 Wavebouys and Weather Stations around the globe.

Join

Comparision Forecast

View Surf forecast
   
vie 09/22 8:50 8ft 11s 9s 11 16 mph 1017.4mb 69f 71f
7:50 10ft 12s 10s 9 11 mph 1017.4mb 69f 70f
6:50 9ft 12s 9s 7 9 mph 1017mb 69f 70f
5:50 7.5ft 11s 9s 7 9 mph 1016.7mb 69f 69f
4:50 9ft 11s 9s 4 7 mph 1016.2mb 69f 69f
3:50 9ft 11s 9s 4 9 mph 1016mb 69f 69f
1:50 7ft 11s 8s 7 9 mph 1017.1mb 69f 69f
12:50 7ft 11s 8s 4 9 mph 1017.3mb 69f 69f
jue 09/21 11:50 7ft 10s 8s 4 4 mph 1017.7mb 69f 69f
10:50 7ft 11s 8s 4 7 mph 1017.7mb 70f 70f
9:50 6.5ft 11s 8s 4 7 mph 1017.4mb 71f 70f
8:50 6.5ft 10s 7s 9 9 mph 1016.7mb 71f 71f
7:50 6.5ft 11s 8s 7 11 mph 1016.4mb 71f 71f
6:50 6.5ft 10s 8s 9 11 mph 1016.3mb 71f 71f
5:50 5.5ft 11s 8s 7 7 mph 1016.1mb 71f 71f
4:50 6ft 9s 8s 11 11 mph 1015.9mb 72f 72f
3:50 7ft 11s 8s 9 9 mph 1016.1mb 72f 72f
2:50 7.5ft 11s 9s 7 7 mph 1016.5mb 72f 73f
1:50 7ft 11s 8s 7 7 mph 1016.6mb 72f 72f
12:50 8ft 11s 9s 7 7 mph 1016.7mb 71f 72f
11:50 7.5ft 11s 9s 7 7 mph 1017mb 71f 71f
10:50 8ft 11s 9s 4 7 mph 1017.1mb 70f 70f
9:50 7ft 11s 8s 7 7 mph 1016.9mb 70f 71f
8:50 7.5ft 11s 8s 4 7 mph 1016.5mb 69f 70f
7:50 7ft 11s 8s 7 7 mph 1016.1mb 69f 70f
6:50 6ft 11s 8s 4 7 mph 1015.8mb 70f 70f
5:50 7ft 11s 8s 4 7 mph 1015.1mb 70f 70f
4:50 6ft 10s 8s 7 7 mph 1014.8mb 69f 71f
3:50 5ft 10s 7s 7 9 mph 1014.7mb 69f 71f
2:50 5.5ft 10s 7s 7 9 mph 1014.8mb 69f 70f
1:50 7ft 10s 8s 7 9 mph 1015.1mb 70f 71f
12:50 6ft 10s 8s 4 4 mph 1015.2mb 70f 71f
mié 09/20 11:50 6ft 10s 8s 4 7 mph 1015.1mb 70f 71f
10:50 5.5ft 11s 7s 4 4 mph 1015.3mb 70f 71f
9:50 5.5ft 11s 7s 4 4 mph 1015mb 70f 71f
8:50 6ft 11s 7s 2 4 mph 1014.6mb 70f 71f
7:50 5.5ft 11s 7s 2 4 mph 1014.2mb 71f 71f
6:50 6ft 9s 7s 7 7 mph 1013.4mb 71f 72f
5:50 7ft 11s 7s 7 9 mph 1013.1mb 72f 73f
4:50 8ft 11s 7s 9 11 mph 1012.9mb 72f 73f
3:50 9.5ft 10s 7s 11 13 mph 1012.8mb 71f 72f
2:50 8ft 10s 7s 13 18 mph 1013mb 71f 71f
1:50 9ft 11s 7s 13 16 mph 1013.2mb 71f 71f
12:50 9ft 11s 7s 13 16 mph 1013.8mb 70f 70f
11:50 10ft 11s 7s 13 16 mph 1013.7mb 69f 70f
10:50 9.5ft 11s 7s 16 18 mph 1013.6mb 69f 70f
9:50 9.5ft 11s 7s 13 16 mph 1013.6mb 69f 70f
8:50 10ft 10s 7s 16 18 mph 1013mb 69f 71f
7:50 9ft 11s 7s 16 18 mph 1012.4mb 69f 70f
6:50 9.5ft 11s 7s 13 18 mph 1011.7mb 70f 70f
5:50 9.5ft 10s 7s 11 13 mph 1011mb 70f 70f
4:50 10ft 11s 7s 13 13 mph 1010.3mb 70f 70f
3:50 11ft 11s 7s 16 18 mph 1009.9mb 70f 70f
2:50 11ft 11s 7s 20 22 mph 1010mb 70f 70f
1:50 10ft 11s 7s 20 25 mph 1010mb 70f 70f
12:50 12ft 11s 7s 22 27 mph 1009.4mb 71f 70f
mar 09/19 11:50 14ft 10s 7s 25 29 mph 1009.1mb 71f 70f
10:50 13ft 11s 7s 27 31 mph 1008.8mb 71f 71f
9:50 14ft 11s 7s 27 34 mph 1008.6mb 71f 71f
8:50 15.5ft 11s 7s 29 34 mph 1008.3mb 71f 71f
7:50 16ft 10s 8s 31 36 mph 1007.7mb 71f 71f
6:50 15.5ft 11s 7s 31 38 mph 1007.1mb 71f 71f
5:50 16ft 11s 7s 31 40 mph 1006.9mb 71f 70f
4:50 18.5ft 10s 8s 31 40 mph 1006.6mb 71f 69f
3:50 17ft 13s 8s 34 43 mph 1006.3mb 71f 69f
2:50 17.5ft 10s 8s 36 40 mph 1005.7mb 71f 70f
1:50 16.5ft 10s 8s 36 45 mph 1005.5mb 71f 70f
12:50 15.5ft 13s 7s 36 45 mph 1005.6mb 71f 71f
11:50 16.5ft 11s 8s 38 47 mph 1005.3mb 71f 71f
10:50 16.5ft 11s 8s 38 45 mph 1005.5mb 71f 71f
9:50 15ft 11s 8s 38 45 mph 1005.2mb 71f 71f
8:50 15.5ft 11s 7s 34 43 mph 1005.1mb 71f 72f
7:50 16ft 10s 8s 38 47 mph 1004.9mb 71f 71f
6:50 15.5ft 13s 7s 36 45 mph 1005mb 71f 71f
5:50 16.5ft 12s 7s 34 43 mph 1005.1mb 72f 71f
4:50 15.5ft 12s 7s 36 45 mph 1005.2mb 72f 72f
3:50 15ft 13s 7s 34 45 mph 1005.3mb 72f 71f
2:50 15.5ft 13s 8s 34 40 mph 1006mb 72f 72f
1:50 15ft 13s 7s 31 36 mph 1007mb 72f 73f
12:50 14ft 13s 7s 38 49 mph 1007.6mb 72f 71f
lun 09/18 11:50 15ft 12s 7s 29 36 mph 1008.7mb 72f 72f
10:50 13ft 12s 7s 31 38 mph 1009.3mb 73f 72f
9:50 12.5ft 13s 7s 31 40 mph 1009.7mb 73f 73f
8:50 12ft 11s 7s 31 38 mph 1010.2mb 73f 73f
7:50 12.5ft 12s 7s 27 34 mph 1010.4mb 73f 73f
6:50 13ft 14s 8s 25 31 mph 1010.7mb 73f 73f
5:50 12ft 12s 8s 25 31 mph 1010.8mb 73f 73f
4:50 13ft 13s 8s 22 27 mph 1011.4mb 73f 73f
3:50 11ft 14s 8s 22 27 mph 1011.6mb 73f 74f
2:50 10.5ft 13s 7s 22 27 mph 1012mb 73f 73f